createdAt,value
2018-07-04T00:00:06.439Z,42.12
2018-07-04T00:03:47.646Z,42.53
2018-07-04T00:07:29.027Z,43.34
2018-07-04T00:11:10.490Z,42.85
2018-07-04T00:14:51.941Z,42.98
2018-07-04T00:18:33.079Z,42.87
2018-07-04T00:22:08.372Z,44.03
2018-07-04T00:25:49.882Z,43.78
2018-07-04T00:29:31.257Z,43.94
2018-07-04T00:33:12.758Z,43.93
2018-07-04T00:36:54.703Z,43.62
2018-07-04T00:40:36.224Z,44.80
2018-07-04T00:44:17.606Z,45.16
2018-07-04T00:47:58.893Z,45.10
2018-07-04T00:51:40.116Z,44.80
2018-07-04T00:55:21.367Z,45.32
2018-07-04T00:59:02.787Z,45.46
2018-07-04T01:02:44.180Z,45.88
2018-07-04T01:06:25.620Z,45.46
2018-07-04T01:10:07.138Z,45.59
2018-07-04T01:13:48.512Z,45.67
2018-07-04T01:17:30.006Z,46.76
2018-07-04T01:21:14.128Z,47.21
2018-07-04T01:24:55.364Z,47.12
2018-07-04T01:28:41.930Z,48.22
2018-07-04T01:32:23.522Z,48.43
2018-07-04T01:36:04.718Z,48.85
2018-07-04T01:39:45.999Z,48.96
2018-07-04T01:43:27.335Z,48.70
2018-07-04T01:47:08.756Z,48.85
2018-07-04T01:50:50.026Z,49.95
2018-07-04T01:54:31.384Z,49.12
2018-07-04T01:58:12.872Z,49.38
2018-07-04T02:01:54.106Z,49.68
2018-07-04T02:05:35.210Z,49.88
2018-07-04T02:09:16.351Z,49.72
2018-07-04T02:12:57.812Z,49.38
2018-07-04T02:16:39.222Z,49.91
2018-07-04T02:20:14.615Z,50.56
2018-07-04T02:23:56.173Z,50.50
2018-07-04T02:27:37.542Z,50.34
2018-07-04T02:31:18.883Z,50.96
2018-07-04T02:35:00.518Z,51.11
2018-07-04T02:38:41.940Z,52.66
2018-07-04T02:42:23.174Z,52.01
2018-07-04T02:46:04.304Z,52.30
2018-07-04T02:49:45.984Z,52.85
2018-07-04T02:53:27.168Z,52.62
2018-07-04T02:57:08.340Z,52.04
2018-07-04T03:00:49.508Z,53.16
2018-07-04T03:04:30.707Z,52.86
2018-07-04T03:08:12.116Z,53.41
2018-07-04T03:11:53.761Z,53.48
2018-07-04T03:15:35.096Z,53.04
2018-07-04T03:19:17.130Z,53.40
2018-07-04T03:22:58.532Z,52.43
2018-07-04T03:26:39.999Z,52.72
2018-07-04T03:30:21.282Z,53.84
2018-07-04T03:34:02.561Z,53.19
2018-07-04T03:37:43.947Z,53.53
2018-07-04T03:41:25.218Z,54.00
2018-07-04T03:45:06.436Z,52.99
2018-07-04T03:48:47.693Z,53.42
2018-07-04T03:52:28.889Z,54.39
2018-07-04T03:56:10.233Z,53.89
2018-07-04T03:59:51.576Z,55.29
2018-07-04T04:03:32.828Z,55.32
2018-07-04T04:07:14.158Z,54.80
2018-07-04T04:10:55.297Z,56.83
2018-07-04T04:14:36.712Z,56.32
2018-07-04T04:18:18.050Z,56.13
2018-07-04T04:21:59.352Z,54.69
2018-07-04T04:25:40.692Z,55.37
2018-07-04T04:29:21.947Z,54.73
2018-07-04T04:33:03.370Z,54.60
2018-07-04T04:36:44.604Z,53.52
2018-07-04T04:40:25.832Z,55.47
2018-07-04T04:44:07.051Z,53.50
2018-07-04T04:47:48.344Z,53.83
2018-07-04T04:51:29.718Z,53.17
2018-07-04T04:55:11.199Z,54.05
2018-07-04T04:58:52.459Z,53.10
2018-07-04T05:02:33.631Z,52.39
2018-07-04T05:06:14.809Z,52.92
2018-07-04T05:09:56.252Z,52.42
2018-07-04T05:13:37.914Z,52.46
2018-07-04T05:17:19.499Z,51.93
2018-07-04T05:21:00.880Z,51.28
2018-07-04T05:24:42.450Z,52.03
2018-07-04T05:28:23.667Z,52.16
2018-07-04T05:32:04.825Z,51.36
2018-07-04T05:35:46.094Z,50.58
2018-07-04T05:39:27.324Z,51.68
2018-07-04T05:43:08.864Z,52.93
2018-07-04T05:46:50.351Z,51.61
2018-07-04T05:50:31.774Z,51.04
2018-07-04T05:54:13.120Z,50.12
2018-07-04T05:57:54.451Z,49.16
2018-07-04T06:01:36.053Z,49.80
2018-07-04T06:05:17.420Z,49.43
2018-07-04T06:08:58.826Z,49.50
2018-07-04T06:12:40.182Z,48.61
2018-07-04T06:16:21.542Z,48.47
2018-07-04T06:20:02.791Z,46.57
2018-07-04T06:23:44.238Z,47.99
2018-07-04T06:27:25.512Z,46.41
2018-07-04T06:31:06.992Z,45.56
2018-07-04T06:34:48.436Z,44.95
2018-07-04T06:38:11.219Z,46.32
2018-07-04T06:41:33.979Z,43.66
2018-07-04T06:44:56.745Z,44.95
2018-07-04T06:48:19.555Z,44.74
2018-07-04T06:51:42.411Z,43.28
2018-07-04T06:55:05.249Z,42.42
2018-07-04T07:02:06.976Z,41.55
2018-07-04T07:05:48.330Z,38.24
2018-07-04T07:09:29.660Z,37.10
2018-07-04T07:13:11.022Z,40.98
2018-07-04T07:16:52.538Z,39.42
2018-07-04T07:20:33.864Z,38.55
2018-07-04T07:24:15.178Z,39.19
2018-07-04T07:27:57.084Z,36.94
2018-07-04T07:31:38.993Z,37.71
2018-07-04T07:35:20.460Z,37.96
2018-07-04T07:39:01.941Z,36.90
2018-07-04T07:42:43.254Z,35.76
2018-07-04T07:46:24.680Z,35.42
2018-07-04T07:50:06.151Z,33.65
2018-07-04T07:53:47.745Z,33.77
2018-07-04T07:57:29.217Z,34.47
2018-07-04T08:01:10.635Z,33.69
2018-07-04T08:04:52.142Z,33.98
2018-07-04T08:08:33.574Z,33.30
2018-07-04T08:12:14.871Z,32.27
2018-07-04T08:15:56.129Z,32.52
2018-07-04T08:19:37.399Z,31.43
2018-07-04T08:23:18.646Z,30.13
2018-07-04T08:27:03.516Z,29.75
2018-07-04T08:30:45.060Z,29.52
2018-07-04T08:34:26.529Z,28.94
2018-07-04T08:38:08.076Z,29.33
2018-07-04T08:41:49.271Z,29.52
2018-07-04T08:45:30.750Z,31.17
2018-07-04T08:49:12.155Z,29.66
2018-07-04T08:52:47.423Z,29.04
2018-07-04T08:56:28.828Z,29.41
2018-07-04T09:00:10.466Z,31.03
2018-07-04T09:03:51.803Z,29.83
2018-07-04T09:07:33.166Z,29.25
2018-07-04T09:11:14.494Z,29.73
2018-07-04T09:14:55.898Z,29.38
2018-07-04T09:18:37.372Z,29.11
2018-07-04T09:22:18.730Z,28.67
2018-07-04T09:26:00.045Z,27.48
2018-07-04T09:29:41.335Z,28.10
2018-07-04T09:33:22.726Z,29.59
2018-07-04T09:37:04.074Z,27.66
2018-07-04T09:40:45.526Z,28.55
2018-07-04T09:44:26.817Z,29.23
2018-07-04T09:48:08.505Z,30.07
2018-07-04T09:51:49.831Z,29.98
2018-07-04T09:55:31.442Z,28.92
2018-07-04T09:59:12.765Z,31.36
2018-07-04T10:02:54.307Z,31.31
2018-07-04T10:06:35.878Z,29.83
2018-07-04T10:10:17.226Z,29.51
2018-07-04T10:13:58.662Z,29.74
2018-07-04T10:17:39.973Z,28.81
2018-07-04T10:21:22.278Z,28.44
2018-07-04T10:25:03.664Z,28.29
2018-07-04T10:28:45.096Z,28.21
2018-07-04T10:32:26.414Z,28.29
2018-07-04T10:36:07.934Z,28.50
2018-07-04T10:39:49.378Z,28.56
2018-07-04T10:43:30.913Z,27.39
2018-07-04T10:47:12.205Z,26.66
2018-07-04T10:50:53.639Z,24.97
2018-07-04T10:54:34.990Z,26.88
2018-07-04T10:58:16.292Z,26.50
2018-07-04T11:01:57.551Z,26.21
2018-07-04T11:05:38.859Z,25.73
2018-07-04T11:09:20.151Z,25.21
2018-07-04T11:13:01.565Z,24.66
2018-07-04T11:16:42.994Z,24.56
2018-07-04T11:20:18.357Z,23.00
2018-07-04T11:23:59.792Z,23.57
2018-07-04T11:27:41.210Z,24.12
2018-07-04T11:31:22.786Z,23.52
2018-07-04T11:35:04.206Z,22.73
2018-07-04T11:38:45.640Z,24.80
2018-07-04T11:42:26.975Z,24.84
2018-07-04T11:45:58.181Z,24.41
2018-07-04T11:49:20.941Z,21.16
2018-07-04T11:52:43.755Z,20.45
2018-07-04T11:56:06.539Z,21.81
2018-07-04T11:59:29.410Z,24.69
2018-07-04T12:02:52.199Z,26.16
2018-07-04T12:06:33.788Z,26.20
2018-07-04T12:09:56.573Z,26.53
2018-07-04T12:13:20.499Z,26.98
2018-07-04T12:16:43.287Z,26.82
2018-07-04T12:20:06.048Z,24.43
2018-07-04T12:23:28.850Z,21.45
2018-07-04T12:26:51.797Z,21.75
2018-07-04T12:30:14.580Z,20.15
2018-07-04T12:33:37.399Z,21.08
2018-07-04T12:37:00.317Z,21.29
2018-07-04T12:40:23.090Z,21.34
2018-07-04T12:43:45.927Z,21.89
2018-07-04T12:47:08.777Z,21.69
2018-07-04T12:50:33.071Z,22.84
2018-07-04T12:54:01.027Z,23.71
2018-07-04T12:57:42.235Z,25.64
2018-07-04T13:01:23.523Z,25.43
2018-07-04T13:05:04.759Z,25.56
2018-07-04T13:08:46.071Z,25.69
2018-07-04T13:12:27.244Z,27.11
2018-07-04T13:16:08.548Z,28.68
2018-07-04T13:19:50.006Z,28.60
2018-07-04T13:23:31.547Z,29.26
2018-07-04T13:27:13.164Z,29.36
2018-07-04T13:30:54.436Z,29.34
2018-07-04T13:34:36.880Z,31.10
2018-07-04T13:38:18.270Z,30.98
2018-07-04T13:41:59.512Z,32.34
2018-07-04T13:45:40.927Z,32.11
2018-07-04T13:49:22.248Z,32.96
2018-07-04T13:53:03.490Z,31.88
2018-07-04T13:56:44.743Z,32.14
2018-07-04T14:00:26.035Z,32.02
2018-07-04T14:04:07.316Z,33.02
2018-07-04T14:07:48.560Z,32.74
2018-07-04T14:11:29.642Z,33.19
2018-07-04T14:15:10.818Z,32.83
2018-07-04T14:18:52.312Z,33.54
2018-07-04T14:22:33.360Z,34.12
2018-07-04T14:26:15.382Z,35.22
2018-07-04T14:29:56.741Z,34.59
2018-07-04T14:33:38.004Z,34.72
2018-07-04T14:37:19.490Z,35.53
2018-07-04T14:41:00.934Z,33.43
2018-07-04T14:44:42.446Z,31.63
2018-07-04T14:48:23.766Z,30.38
2018-07-04T14:52:05.294Z,30.21
2018-07-04T14:55:46.575Z,29.95
2018-07-04T14:59:27.719Z,30.85
2018-07-04T15:03:08.935Z,30.72
2018-07-04T15:06:50.153Z,32.68
2018-07-04T15:10:31.407Z,32.96
2018-07-04T15:14:12.675Z,32.90
2018-07-04T15:17:54.006Z,34.50
2018-07-04T15:21:35.125Z,35.44
2018-07-04T15:25:16.171Z,35.96
2018-07-04T15:28:57.408Z,37.52
2018-07-04T15:32:38.732Z,35.83
2018-07-04T15:36:19.939Z,35.28
2018-07-04T15:40:01.281Z,35.31
2018-07-04T15:43:42.596Z,36.47
2018-07-04T15:47:23.830Z,34.88
2018-07-04T15:51:05.012Z,35.12
2018-07-04T15:54:46.511Z,35.20
2018-07-04T15:58:27.765Z,34.87
2018-07-04T16:02:09.027Z,34.22
2018-07-04T16:05:50.739Z,35.39
2018-07-04T16:09:26.234Z,33.62
2018-07-04T16:13:07.651Z,34.37
2018-07-04T16:16:49.043Z,35.42
2018-07-04T16:20:30.465Z,34.49
2018-07-04T16:24:11.780Z,35.33
2018-07-04T16:27:53.047Z,34.81
2018-07-04T16:31:34.534Z,35.05
2018-07-04T16:35:15.770Z,35.36
2018-07-04T16:38:57.017Z,34.09
2018-07-04T16:42:38.468Z,35.29
2018-07-04T16:46:19.604Z,35.91
2018-07-04T16:50:01.013Z,35.57
2018-07-04T16:53:42.623Z,35.85
2018-07-04T16:57:24.110Z,35.15
2018-07-04T17:01:05.762Z,35.05
2018-07-04T17:04:47.096Z,34.09
2018-07-04T17:08:28.319Z,32.19
2018-07-04T17:12:09.703Z,33.38
2018-07-04T17:15:51.032Z,33.89
2018-07-04T17:19:32.457Z,33.75
2018-07-04T17:23:13.861Z,32.87
2018-07-04T17:26:55.251Z,33.73
2018-07-04T17:30:36.425Z,34.59
2018-07-04T17:34:17.738Z,35.23
2018-07-04T17:38:00.173Z,35.32
2018-07-04T17:41:41.637Z,37.16
2018-07-04T17:45:23.080Z,37.67
2018-07-04T17:49:04.446Z,38.41
2018-07-04T17:52:45.821Z,38.19
2018-07-04T17:56:27.494Z,38.79
2018-07-04T18:00:09.861Z,38.64
2018-07-04T18:03:52.078Z,40.21
2018-07-04T18:07:33.529Z,39.70
2018-07-04T18:11:15.143Z,41.33
2018-07-04T18:14:56.413Z,39.99
2018-07-04T18:18:38.103Z,39.71
2018-07-04T18:22:19.452Z,40.42
2018-07-04T18:26:00.773Z,40.02
2018-07-04T18:29:42.100Z,40.63
2018-07-04T18:33:23.572Z,41.22
2018-07-04T18:37:04.855Z,40.77
2018-07-04T18:40:46.165Z,41.60
2018-07-04T18:44:27.542Z,41.41
2018-07-04T18:48:08.986Z,42.76
2018-07-04T18:51:50.800Z,42.95
2018-07-04T18:55:32.243Z,43.05
2018-07-04T18:59:13.606Z,43.02
2018-07-04T19:02:54.970Z,43.61
2018-07-04T19:06:36.354Z,43.23
2018-07-04T19:10:17.873Z,44.58
2018-07-04T19:13:59.359Z,44.22
2018-07-04T19:17:40.793Z,45.32
2018-07-04T19:21:22.631Z,45.20
2018-07-04T19:25:04.372Z,44.75
2018-07-04T19:28:46.753Z,46.09
2018-07-04T19:32:28.202Z,46.28
2018-07-04T19:36:09.825Z,46.96
2018-07-04T19:39:51.079Z,46.25
2018-07-04T19:43:32.604Z,46.10
2018-07-04T19:47:14.238Z,47.30
2018-07-04T19:50:56.171Z,47.96
2018-07-04T19:54:38.036Z,48.08
2018-07-04T19:58:19.630Z,47.42
2018-07-04T20:02:00.955Z,48.35
2018-07-04T20:05:42.552Z,48.65
2018-07-04T20:09:24.191Z,49.21
2018-07-04T20:13:06.446Z,50.24
2018-07-04T20:16:47.805Z,50.91
2018-07-04T20:20:29.437Z,51.28
2018-07-04T20:24:10.808Z,51.77
2018-07-04T20:27:52.056Z,52.28
2018-07-04T20:31:33.535Z,52.86
2018-07-04T20:35:15.645Z,53.23
2018-07-04T20:38:58.018Z,53.27
2018-07-04T20:42:39.492Z,54.07
2018-07-04T20:46:20.846Z,54.67
2018-07-04T20:50:02.123Z,56.94
2018-07-04T20:53:43.854Z,55.68
2018-07-04T20:57:19.223Z,53.19
2018-07-04T21:01:00.539Z,54.58
2018-07-04T21:04:41.925Z,56.28
2018-07-04T21:08:23.412Z,56.81
2018-07-04T21:12:04.674Z,56.84
2018-07-04T21:15:45.906Z,56.33
2018-07-04T21:19:27.554Z,57.62
2018-07-04T21:23:09.195Z,55.96
2018-07-04T21:26:50.875Z,56.21
2018-07-04T21:30:32.267Z,54.45
2018-07-04T21:34:13.768Z,53.79
2018-07-04T21:37:55.141Z,54.20
2018-07-04T21:41:36.553Z,53.00
2018-07-04T21:45:17.867Z,55.02
2018-07-04T21:48:59.245Z,54.54
2018-07-04T21:52:40.703Z,56.34
2018-07-04T21:56:22.130Z,55.14
2018-07-04T22:00:03.530Z,55.13
2018-07-04T22:03:44.927Z,55.36
2018-07-04T22:07:26.378Z,55.68
2018-07-04T22:11:07.851Z,55.12
2018-07-04T22:14:49.196Z,54.72
2018-07-04T22:18:30.702Z,53.89
2018-07-04T22:22:11.913Z,52.62
2018-07-04T22:25:53.327Z,52.18
2018-07-04T22:29:34.634Z,52.05
2018-07-04T22:33:15.998Z,51.47
2018-07-04T22:36:57.478Z,49.25
2018-07-04T22:40:38.846Z,50.06
2018-07-04T22:44:20.543Z,50.69
2018-07-04T22:48:01.928Z,49.53
2018-07-04T22:51:43.206Z,51.03
2018-07-04T22:55:24.520Z,51.22
2018-07-04T22:59:05.829Z,50.92
2018-07-04T23:02:47.196Z,50.72
2018-07-04T23:06:28.688Z,50.72
2018-07-04T23:10:10.001Z,51.54
2018-07-04T23:13:51.500Z,51.91
2018-07-04T23:17:33.088Z,51.58
2018-07-04T23:21:14.579Z,51.01
2018-07-04T23:24:55.939Z,50.90
2018-07-04T23:28:37.280Z,51.52
2018-07-04T23:32:18.508Z,52.25
2018-07-04T23:35:59.802Z,51.95
2018-07-04T23:39:40.995Z,51.52
2018-07-04T23:43:22.286Z,51.42
2018-07-04T23:47:03.675Z,49.24
2018-07-04T23:50:45.043Z,49.66
2018-07-04T23:54:26.416Z,50.68
2018-07-04T23:58:07.775Z,50.90
